Terminal Aerodrome Forecast
Issued by NWS Jacksonville, FL

Home | Current Version | Previous Version | Text Only | Print | Product List | Glossary On
Versions: 1 2 3 4 5 6 7 8 9 10 11 12 13 14 15 16 17 18 19 20 21 22
000
FTUS42 KJAX 190528
TAFSSI
TAF
KSSI 190528Z 1906/2006 03011KT P6SM VCSH SCT020 BKN030
      TEMPO 1906/1910 4SM SHRA BR BKN020
     FM191400 03014G22KT P6SM SCT020 BKN035
     FM192200 03009KT P6SM SCT030=

USA.gov is the U.S. government's official web portal to all federal, state and local government web resources and services.